Time;durP1;ratioP1;P1;durP2;ratioP2;P2;SDS_P1;SDS_P2;PMS_P1;PMS_P2;Temp;Humidity;BMP_temperature;BMP_pressure;BME280_temperature;BME280_humidity;BME280_pressure;Samples;Min_cycle;Max_cycle;Signal;HPM_P1;HPM_P2
2022/03/31 00:00:14;;;;;;;28.40;21.37;;;9.70;99.90;;;;;;6193548;23;20417;-89
2022/03/31 00:02:40;;;;;;;23.93;19.87;;;9.70;99.90;;;;;;6198183;23;20886;-89
2022/03/31 00:05:07;;;;;;;24.97;20.20;;;9.70;99.90;;;;;;6185070;23;20413;-90
2022/03/31 00:07:34;;;;;;;26.80;23.87;;;9.70;99.90;;;;;;6183884;23;20397;-90
2022/03/31 00:10:01;;;;;;;23.33;19.57;;;9.80;99.90;;;;;;6183659;23;20956;-89
2022/03/31 00:12:28;;;;;;;23.20;19.00;;;9.70;99.90;;;;;;6184116;23;20418;-87
2022/03/31 00:14:54;;;;;;;22.63;19.50;;;9.70;99.90;;;;;;6184114;23;20410;-90
2022/03/31 00:17:23;;;;;;;24.93;18.37;;;9.70;99.90;;;;;;6184458;23;20390;-89
2022/03/31 00:19:49;;;;;;;24.50;20.20;;;9.60;99.90;;;;;;6185522;23;20468;-90
2022/03/31 00:22:16;;;;;;;26.37;20.97;;;9.40;99.90;;;;;;6185748;23;20889;-89
2022/03/31 00:24:43;;;;;;;24.63;19.23;;;9.40;99.90;;;;;;6184449;23;20402;-88
2022/03/31 00:27:09;;;;;;;20.80;17.80;;;9.50;99.90;;;;;;6184666;23;20390;-88
2022/03/31 00:29:36;;;;;;;23.27;18.60;;;9.40;99.90;;;;;;6184572;23;20422;-88
2022/03/31 00:32:05;;;;;;;23.43;19.20;;;9.30;99.90;;;;;;6184523;23;20745;-88
2022/03/31 00:34:35;;;;;;;23.13;18.73;;;9.20;99.90;;;;;;6186444;23;20468;-89
2022/03/31 00:37:02;;;;;;;20.80;18.60;;;9.10;99.90;;;;;;6199264;23;20406;-89
2022/03/31 00:39:32;;;;;;;18.83;16.00;;;9.00;99.90;;;;;;6214905;23;20524;-88
2022/03/31 00:42:01;;;;;;;19.97;17.20;;;9.10;99.90;;;;;;6203572;23;20390;-88
2022/03/31 00:44:27;;;;;;;23.70;17.70;;;9.20;99.90;;;;;;6194893;23;20390;-89
2022/03/31 00:46:56;;;;;;;20.17;16.70;;;9.20;99.90;;;;;;6204395;23;20401;-89
2022/03/31 00:49:24;;;;;;;20.30;17.77;;;9.20;99.90;;;;;;6187130;23;20434;-88
2022/03/31 00:51:54;;;;;;;18.97;15.80;;;9.20;99.90;;;;;;6209821;23;20376;-89
2022/03/31 00:54:22;;;;;;;19.10;16.27;;;9.10;99.90;;;;;;6210480;23;20389;-89
2022/03/31 00:56:51;;;;;;;21.70;17.50;;;8.90;99.90;;;;;;6202392;23;20996;-89
2022/03/31 00:59:18;;;;;;;19.70;16.57;;;9.00;99.90;;;;;;6189543;23;20449;-89
2022/03/31 01:01:47;;;;;;;19.30;16.53;;;9.00;99.90;;;;;;6206525;23;20413;-89
2022/03/31 01:04:14;;;;;;;20.60;17.20;;;9.00;99.90;;;;;;6211587;23;20445;-88
2022/03/31 01:06:43;;;;;;;18.47;15.97;;;9.00;99.90;;;;;;6212945;23;20398;-88
2022/03/31 01:09:12;;;;;;;20.47;17.50;;;8.90;99.90;;;;;;6203697;23;20442;-88
2022/03/31 01:11:39;;;;;;;19.80;16.60;;;8.90;99.90;;;;;;6200427;23;20414;-88
2022/03/31 01:14:07;;;;;;;20.80;17.17;;;8.90;99.90;;;;;;6210737;23;20413;-88
2022/03/31 01:16:34;;;;;;;18.67;16.77;;;8.90;99.90;;;;;;6208586;23;20425;-88
2022/03/31 01:19:04;;;;;;;21.47;17.87;;;8.80;99.90;;;;;;6200190;23;20449;-89
2022/03/31 01:21:31;;;;;;;19.30;16.20;;;8.80;99.90;;;;;;6188570;23;20418;-88
2022/03/31 01:23:59;;;;;;;19.37;16.83;;;8.90;99.90;;;;;;6188504;23;20446;-88
2022/03/31 01:26:26;;;;;;;18.40;15.80;;;9.00;99.90;;;;;;6189715;23;20406;-88
2022/03/31 01:28:53;;;;;;;17.17;15.37;;;8.90;99.90;;;;;;6213482;23;20415;-88
2022/03/31 01:31:20;;;;;;;18.60;16.03;;;8.80;99.90;;;;;;6208319;23;20462;-88
2022/03/31 01:33:47;;;;;;;16.97;14.70;;;8.70;99.90;;;;;;6189688;23;20406;-88
2022/03/31 01:36:13;;;;;;;18.20;15.00;;;8.70;99.90;;;;;;6189474;23;20406;-89
2022/03/31 01:38:40;;;;;;;17.00;15.20;;;8.70;99.90;;;;;;6190738;23;20441;-89
2022/03/31 01:41:08;;;;;;;17.87;15.03;;;8.70;99.90;;;;;;6187977;23;20562;-89
2022/03/31 01:43:35;;;;;;;18.93;16.27;;;8.80;99.90;;;;;;6186549;23;20420;-89
2022/03/31 01:46:02;;;;;;;16.60;14.40;;;8.80;99.90;;;;;;6187053;23;20410;-88
2022/03/31 01:48:30;;;;;;;17.00;15.20;;;8.80;99.90;;;;;;6187719;23;20394;-88
2022/03/31 01:50:57;;;;;;;18.03;16.13;;;8.80;99.90;;;;;;6206574;23;20424;-89
2022/03/31 01:53:23;;;;;;;18.40;15.20;;;8.70;99.90;;;;;;6186127;23;20410;-88
2022/03/31 01:55:50;;;;;;;15.50;13.83;;;8.70;99.90;;;;;;6186008;23;20402;-88
2022/03/31 01:58:18;;;;;;;18.70;14.17;;;8.60;99.90;;;;;;6186050;23;20450;-89
2022/03/31 02:00:45;;;;;;;18.70;15.53;;;8.50;99.90;;;;;;6186142;23;20426;-89
2022/03/31 02:03:12;;;;;;;18.37;15.00;;;8.50;99.90;;;;;;6203364;23;20398;-88
2022/03/31 02:05:39;;;;;;;17.13;15.17;;;8.60;99.90;;;;;;6213534;23;20458;-89
2022/03/31 02:08:05;;;;;;;16.93;15.13;;;8.60;99.90;;;;;;6200281;23;20410;-89
2022/03/31 02:10:32;;;;;;;16.90;14.70;;;8.70;99.90;;;;;;6189132;23;20455;-89
2022/03/31 02:12:59;;;;;;;17.23;14.60;;;8.80;99.90;;;;;;6185568;23;20417;-89
2022/03/31 02:15:29;;;;;;;19.77;16.47;;;8.90;99.90;;;;;;6185617;23;20402;-89
2022/03/31 02:17:56;;;;;;;17.33;15.00;;;8.90;99.90;;;;;;6185017;23;20402;-90
2022/03/31 02:20:23;;;;;;;20.43;15.87;;;8.90;99.90;;;;;;6184863;23;20774;-89
2022/03/31 02:22:50;;;;;;;17.90;15.97;;;8.90;99.90;;;;;;6185132;23;20406;-89
2022/03/31 02:25:19;;;;;;;18.33;15.30;;;9.00;99.90;;;;;;6185745;23;20410;-89
2022/03/31 02:27:51;;;;;;;17.47;15.20;;;9.00;99.90;;;;;;6185292;23;20414;-89
2022/03/31 02:30:18;;;;;;;18.33;15.67;;;8.90;99.90;;;;;;6211318;23;20422;-89
2022/03/31 02:32:46;;;;;;;16.50;14.67;;;8.90;99.90;;;;;;6184936;23;20413;-89
2022/03/31 02:35:13;;;;;;;18.63;16.73;;;8.80;99.90;;;;;;6185398;23;20893;-89
2022/03/31 02:37:40;;;;;;;17.33;15.47;;;8.80;99.90;;;;;;6184853;23;20410;-90
2022/03/31 02:40:07;;;;;;;17.30;15.00;;;8.80;99.90;;;;;;6184623;23;21340;-90
2022/03/31 02:42:35;;;;;;;17.87;16.07;;;8.80;99.90;;;;;;6186231;23;20517;-89
2022/03/31 02:45:02;;;;;;;19.60;16.83;;;8.80;99.90;;;;;;6190045;23;20449;-89
2022/03/31 02:47:29;;;;;;;19.23;16.43;;;8.70;99.90;;;;;;6204086;23;20909;-89
2022/03/31 02:49:57;;;;;;;20.73;18.53;;;8.70;99.90;;;;;;6204841;23;20430;-89
2022/03/31 02:52:24;;;;;;;18.60;15.93;;;8.70;99.90;;;;;;6197418;23;20456;-88
2022/03/31 02:57:35;;;;;;;20.00;17.90;;;8.60;99.90;;;;;;6189506;23;20369;-89
2022/03/31 03:00:02;;;;;;;19.77;16.90;;;8.50;99.90;;;;;;6187308;23;20964;-89
2022/03/31 03:02:28;;;;;;;19.80;17.53;;;8.50;99.90;;;;;;6192775;23;20480;-88
2022/03/31 03:04:57;;;;;;;22.90;18.17;;;8.40;99.90;;;;;;6200556;23;20398;-88
2022/03/31 03:07:23;;;;;;;22.30;19.97;;;8.40;99.90;;;;;;6189685;23;20406;-89
2022/03/31 03:09:50;;;;;;;18.37;16.50;;;8.40;99.90;;;;;;6184995;23;20430;-89
2022/03/31 03:12:17;;;;;;;22.50;18.33;;;8.40;99.90;;;;;;6185470;23;21011;-89
2022/03/31 03:14:44;;;;;;;20.70;18.00;;;8.40;99.90;;;;;;6183951;23;20390;-89
2022/03/31 03:17:11;;;;;;;19.70;17.47;;;8.40;99.90;;;;;;6184367;23;20406;-89
2022/03/31 03:19:38;;;;;;;20.63;18.47;;;8.40;99.90;;;;;;6184908;23;20500;-89
2022/03/31 03:22:06;;;;;;;20.83;18.23;;;8.40;99.90;;;;;;6189430;23;20417;-88
2022/03/31 03:24:33;;;;;;;19.90;17.20;;;8.40;99.90;;;;;;6212587;23;20425;-89
2022/03/31 03:26:59;;;;;;;19.50;17.47;;;8.40;99.90;;;;;;6206062;23;20398;-89
2022/03/31 03:29:26;;;;;;;21.37;18.00;;;8.40;99.90;;;;;;6187668;23;20476;-88
2022/03/31 03:31:53;;;;;;;20.67;18.47;;;8.40;99.90;;;;;;6184507;23;20449;-90
2022/03/31 03:34:19;;;;;;;19.97;16.63;;;8.50;99.90;;;;;;6186017;23;20417;-88
2022/03/31 03:36:46;;;;;;;21.03;16.90;;;8.40;99.90;;;;;;6186916;23;20831;-83
2022/03/31 03:39:14;;;;;;;19.70;17.60;;;8.30;99.90;;;;;;6201007;23;20441;-82
2022/03/31 03:41:41;;;;;;;21.27;18.97;;;8.30;99.90;;;;;;6196836;23;20401;-83
2022/03/31 03:44:09;;;;;;;20.13;17.73;;;8.20;99.90;;;;;;6185605;23;20465;-82
2022/03/31 03:46:37;;;;;;;19.70;17.70;;;8.20;99.90;;;;;;6186853;23;20429;-83
2022/03/31 03:49:03;;;;;;;19.53;16.30;;;8.20;99.90;;;;;;6198943;23;20504;-82
2022/03/31 03:51:30;;;;;;;19.30;17.20;;;8.10;99.90;;;;;;6202458;23;20409;-83
2022/03/31 03:53:57;;;;;;;19.53;17.10;;;8.10;99.90;;;;;;6188877;23;20417;-82
2022/03/31 03:56:25;;;;;;;20.47;18.30;;;8.10;99.90;;;;;;6188410;23;20976;-84
2022/03/31 03:58:52;;;;;;;19.60;17.70;;;8.10;99.90;;;;;;6187408;23;20920;-82
2022/03/31 04:01:19;;;;;;;20.17;17.63;;;8.10;99.90;;;;;;6193078;23;20410;-81
2022/03/31 04:03:46;;;;;;;21.43;19.20;;;8.20;99.90;;;;;;6193869;23;21045;-83
2022/03/31 04:06:12;;;;;;;20.17;18.00;;;8.20;99.90;;;;;;6193454;23;20429;-83
2022/03/31 04:08:39;;;;;;;19.87;17.70;;;8.10;99.90;;;;;;6195628;23;20460;-83
2022/03/31 04:11:07;;;;;;;21.27;19.00;;;8.20;99.90;;;;;;6197601;23;20405;-82
2022/03/31 04:13:35;;;;;;;20.47;18.30;;;8.10;99.90;;;;;;6201193;23;20492;-81
2022/03/31 04:16:03;;;;;;;21.00;18.80;;;8.20;99.90;;;;;;6210119;23;20430;-82
2022/03/31 04:18:30;;;;;;;22.80;18.60;;;8.20;99.90;;;;;;6206298;23;20401;-83
2022/03/31 04:21:01;;;;;;;21.83;19.03;;;8.20;99.90;;;;;;6197403;23;20502;-81
2022/03/31 04:23:27;;;;;;;22.47;20.20;;;8.20;99.90;;;;;;6198224;23;20399;-81
2022/03/31 04:25:54;;;;;;;20.37;18.27;;;8.30;99.90;;;;;;6195734;23;20820;-84
2022/03/31 04:28:21;;;;;;;21.30;19.00;;;8.20;99.90;;;;;;6193954;23;20460;-81
2022/03/31 04:30:49;;;;;;;22.33;19.87;;;8.20;99.90;;;;;;6198289;23;20402;-82
2022/03/31 04:33:16;;;;;;;21.27;19.00;;;8.20;99.90;;;;;;6207922;23;20408;-82
2022/03/31 04:35:42;;;;;;;18.90;16.90;;;8.20;99.90;;;;;;6198703;23;20523;-82
2022/03/31 04:38:09;;;;;;;19.20;17.13;;;8.20;99.90;;;;;;6196937;23;20417;-85
2022/03/31 04:40:36;;;;;;;26.23;19.50;;;8.10;99.90;;;;;;6196830;23;20446;-84
2022/03/31 04:43:02;;;;;;;26.13;20.93;;;8.10;99.90;;;;;;6197407;23;20877;-82
2022/03/31 04:45:29;;;;;;;21.60;17.60;;;8.10;99.90;;;;;;6197079;23;20940;-83
2022/03/31 04:47:57;;;;;;;19.40;17.43;;;8.10;99.90;;;;;;6196722;23;20414;-80
2022/03/31 04:50:24;;;;;;;19.70;17.70;;;8.00;99.90;;;;;;6206816;23;20402;-81
2022/03/31 04:52:51;;;;;;;19.90;17.80;;;8.00;99.90;;;;;;6202027;23;20433;-83
2022/03/31 04:55:18;;;;;;;19.60;17.50;;;8.00;99.90;;;;;;6196220;23;20426;-84
2022/03/31 04:57:44;;;;;;;20.73;18.73;;;8.00;99.90;;;;;;6193818;23;20766;-85
2022/03/31 05:00:12;;;;;;;19.50;17.60;;;8.00;99.90;;;;;;6191798;23;20466;-84
2022/03/31 05:02:39;;;;;;;19.67;17.67;;;8.00;99.90;;;;;;6203796;23;20398;-82
2022/03/31 05:05:08;;;;;;;19.80;17.90;;;8.00;99.90;;;;;;6195954;23;20401;-83
2022/03/31 05:07:35;;;;;;;21.23;16.73;;;8.10;99.90;;;;;;6194492;23;20746;-82
2022/03/31 05:10:02;;;;;;;19.07;17.10;;;8.00;99.90;;;;;;6200329;23;20398;-83
2022/03/31 05:12:28;;;;;;;19.13;16.67;;;8.00;99.90;;;;;;6207880;23;20433;-83
2022/03/31 05:14:55;;;;;;;17.90;16.00;;;7.90;99.90;;;;;;6205822;23;20402;-83
2022/03/31 05:17:22;;;;;;;19.00;17.00;;;7.90;99.90;;;;;;6200411;23;20406;-84
2022/03/31 05:19:48;;;;;;;20.37;18.27;;;7.90;99.90;;;;;;6193329;23;20437;-83
2022/03/31 05:22:16;;;;;;;18.83;16.77;;;7.90;99.90;;;;;;6204777;23;20727;-83
2022/03/31 05:24:43;;;;;;;19.30;16.53;;;7.90;99.90;;;;;;6196731;23;20410;-82
2022/03/31 05:27:10;;;;;;;21.70;18.63;;;8.00;99.90;;;;;;6208704;23;20425;-81
2022/03/31 05:29:37;;;;;;;18.80;16.80;;;8.00;99.90;;;;;;6203310;23;20398;-83
2022/03/31 05:32:04;;;;;;;20.00;17.23;;;8.00;99.90;;;;;;6204155;23;20820;-83
2022/03/31 05:34:31;;;;;;;17.93;15.80;;;8.00;99.90;;;;;;6205730;23;20476;-84
2022/03/31 05:36:58;;;;;;;20.20;17.80;;;8.00;99.90;;;;;;6187336;23;20476;-83
2022/03/31 05:39:26;;;;;;;18.00;16.10;;;8.00;99.90;;;;;;6190504;23;20452;-85
2022/03/31 05:41:52;;;;;;;19.50;17.37;;;8.00;99.90;;;;;;6192249;23;20468;-85
2022/03/31 05:44:19;;;;;;;20.77;18.67;;;8.10;99.90;;;;;;6191690;23;20437;-83
2022/03/31 05:46:46;;;;;;;20.87;18.67;;;8.10;99.90;;;;;;6189251;23;20956;-85
2022/03/31 05:49:13;;;;;;;20.00;17.90;;;8.10;99.90;;;;;;6191361;23;20753;-82
2022/03/31 05:51:40;;;;;;;21.77;18.97;;;8.20;99.90;;;;;;6192258;23;20406;-83
2022/03/31 05:54:07;;;;;;;21.90;19.60;;;8.20;99.90;;;;;;6191437;23;20807;-83
2022/03/31 05:56:35;;;;;;;20.53;18.30;;;8.20;99.90;;;;;;6191547;23;20426;-84
2022/03/31 05:59:01;;;;;;;21.20;19.07;;;8.20;99.90;;;;;;6191566;23;20921;-83
2022/03/31 06:01:28;;;;;;;20.10;17.33;;;8.20;99.90;;;;;;6191708;23;20441;-84
2022/03/31 06:03:55;;;;;;;21.73;19.30;;;8.20;99.90;;;;;;6191449;23;20479;-83
2022/03/31 06:06:23;;;;;;;22.17;19.87;;;8.20;99.90;;;;;;6191407;23;20429;-84
2022/03/31 06:08:49;;;;;;;21.60;18.90;;;8.10;99.90;;;;;;6191905;23;20421;-84
2022/03/31 06:11:16;;;;;;;20.27;18.20;;;8.10;99.90;;;;;;6193198;23;20731;-83
2022/03/31 06:13:44;;;;;;;22.10;19.40;;;8.20;99.90;;;;;;6196398;23;20410;-84
2022/03/31 06:16:11;;;;;;;21.83;19.53;;;8.20;99.90;;;;;;6191766;23;20449;-84
2022/03/31 06:18:38;;;;;;;21.90;19.60;;;8.20;99.90;;;;;;6191551;23;20413;-82
2022/03/31 06:21:05;;;;;;;20.60;18.50;;;8.20;99.90;;;;;;6190989;23;20437;-83
2022/03/31 06:23:32;;;;;;;22.10;19.83;;;8.20;99.90;;;;;;6191134;23;20417;-83
2022/03/31 06:25:58;;;;;;;21.10;18.90;;;8.20;99.90;;;;;;6191569;23;20490;-84
2022/03/31 06:28:28;;;;;;;22.90;20.60;;;8.30;99.90;;;;;;6191907;23;20417;-82
2022/03/31 06:30:56;;;;;;;19.50;17.40;;;8.20;99.90;;;;;;6192853;23;20422;-84
2022/03/31 06:33:23;;;;;;;20.60;18.50;;;8.20;99.90;;;;;;6191401;23;20406;-85
2022/03/31 06:35:50;;;;;;;23.67;21.27;;;8.20;99.90;;;;;;6203485;23;20438;-84
2022/03/31 06:38:17;;;;;;;22.80;19.20;;;8.30;99.90;;;;;;6204296;23;20412;-83
2022/03/31 06:41:06;;;;;;;21.33;19.07;;;8.30;99.90;;;;;;6194852;23;20438;-83
2022/03/31 06:43:30;;;;;;;21.93;18.87;;;8.30;99.90;;;;;;6205020;23;20402;-82
2022/03/31 06:45:58;;;;;;;22.13;19.83;;;8.40;99.90;;;;;;6197671;23;20449;-83
2022/03/31 06:48:26;;;;;;;22.53;18.90;;;8.40;99.90;;;;;;6196604;23;20456;-82
2022/03/31 06:50:53;;;;;;;22.70;20.40;;;8.50;99.90;;;;;;6193418;23;20412;-83
2022/03/31 06:53:20;;;;;;;22.57;18.73;;;8.50;99.90;;;;;;6193625;23;20413;-84
2022/03/31 06:55:46;;;;;;;22.73;20.33;;;8.60;99.90;;;;;;6200064;23;20422;-84
2022/03/31 06:58:13;;;;;;;21.40;19.17;;;8.60;99.90;;;;;;6208810;23;20410;-81
2022/03/31 07:00:40;;;;;;;21.37;19.27;;;8.60;99.90;;;;;;6194173;23;20524;-84
2022/03/31 07:03:08;;;;;;;19.57;17.53;;;8.70;99.90;;;;;;6193173;23;20738;-84
2022/03/31 07:05:36;;;;;;;22.27;19.97;;;8.70;99.90;;;;;;6191411;23;20422;-84
2022/03/31 07:08:03;;;;;;;21.77;19.47;;;8.80;99.90;;;;;;6190839;23;20402;-83
2022/03/31 07:10:30;;;;;;;21.93;19.73;;;8.80;99.90;;;;;;6192342;23;20402;-84
2022/03/31 07:12:57;;;;;;;21.30;19.30;;;8.90;99.90;;;;;;6193537;23;20406;-84
2022/03/31 07:15:24;;;;;;;21.77;19.57;;;9.00;99.90;;;;;;6207817;23;20450;-83
2022/03/31 07:17:51;;;;;;;20.53;18.43;;;9.00;99.90;;;;;;6205494;23;20416;-82
2022/03/31 07:20:19;;;;;;;22.37;20.17;;;9.10;99.90;;;;;;6196029;23;20442;-84
2022/03/31 07:22:47;;;;;;;21.33;18.67;;;9.10;99.90;;;;;;6192620;23;20401;-82
2022/03/31 07:25:14;;;;;;;23.10;20.60;;;9.20;99.90;;;;;;6195416;23;20402;-82
2022/03/31 07:27:40;;;;;;;21.37;19.17;;;9.30;99.90;;;;;;6203698;23;20402;-83
2022/03/31 07:30:08;;;;;;;21.03;18.93;;;9.40;99.90;;;;;;6198187;23;20430;-83
2022/03/31 07:32:35;;;;;;;21.17;18.97;;;9.40;99.90;;;;;;6200759;23;20788;-84
2022/03/31 07:35:02;;;;;;;22.87;18.13;;;9.40;99.90;;;;;;6206349;23;20406;-84
2022/03/31 07:37:30;;;;;;;23.40;18.60;;;9.40;99.90;;;;;;6198187;23;20919;-83
2022/03/31 07:39:57;;;;;;;21.23;17.77;;;9.50;99.90;;;;;;6203363;23;20396;-83
2022/03/31 07:42:24;;;;;;;20.97;18.77;;;9.60;99.90;;;;;;6198835;23;20409;-84
2022/03/31 07:44:51;;;;;;;21.77;18.47;;;9.70;99.90;;;;;;6193737;23;20414;-83
2022/03/31 07:47:17;;;;;;;19.30;17.50;;;9.80;99.90;;;;;;6207848;23;20420;-83
2022/03/31 07:49:46;;;;;;;21.93;19.73;;;9.90;99.90;;;;;;6208527;23;20402;-82
2022/03/31 07:52:14;;;;;;;22.00;19.43;;;9.90;99.90;;;;;;6205915;23;20406;-84
2022/03/31 07:54:42;;;;;;;21.30;19.07;;;10.00;99.90;;;;;;6193264;23;20428;-82
2022/03/31 07:57:10;;;;;;;23.20;21.00;;;10.00;99.90;;;;;;6199918;23;20426;-81
2022/03/31 07:59:36;;;;;;;20.97;18.93;;;10.00;99.90;;;;;;6199860;23;20406;-83
2022/03/31 08:02:03;;;;;;;19.30;17.30;;;10.10;99.90;;;;;;6193019;23;20445;-83
2022/03/31 08:04:30;;;;;;;22.43;20.00;;;10.10;99.90;;;;;;6192328;23;20417;-84
2022/03/31 08:06:57;;;;;;;21.83;19.47;;;10.20;99.80;;;;;;6191042;23;20421;-85
2022/03/31 08:09:24;;;;;;;22.03;19.70;;;10.30;99.70;;;;;;6204470;23;20445;-83
2022/03/31 08:11:52;;;;;;;22.43;19.57;;;10.30;99.40;;;;;;6192583;23;20406;-85
2022/03/31 08:14:20;;;;;;;21.40;19.33;;;10.30;99.40;;;;;;6191837;23;20574;-84
2022/03/31 08:16:48;;;;;;;24.20;21.80;;;10.30;99.30;;;;;;6190546;23;20430;-83
2022/03/31 08:19:15;;;;;;;22.70;20.40;;;10.30;99.30;;;;;;6191558;23;20790;-84
2022/03/31 08:21:42;;;;;;;22.27;19.97;;;10.20;99.40;;;;;;6191846;23;20445;-84
2022/03/31 08:24:10;;;;;;;21.67;19.40;;;10.20;99.50;;;;;;6191350;23;20409;-83
2022/03/31 08:26:37;;;;;;;23.53;21.00;;;10.10;99.40;;;;;;6191442;23;20488;-84
2022/03/31 08:29:05;;;;;;;22.77;20.43;;;10.10;99.50;;;;;;6192627;23;20402;-84
2022/03/31 08:31:33;;;;;;;22.73;20.33;;;10.10;99.60;;;;;;6190785;23;20397;-83
2022/03/31 08:33:59;;;;;;;24.73;20.93;;;10.10;99.70;;;;;;6190638;23;20428;-84
2022/03/31 08:36:26;;;;;;;22.03;19.80;;;10.00;99.50;;;;;;6190381;23;20433;-84
2022/03/31 08:38:53;;;;;;;23.93;21.17;;;9.90;99.90;;;;;;6190990;23;20748;-85
2022/03/31 08:41:22;;;;;;;23.23;20.77;;;9.90;99.90;;;;;;6191467;23;21034;-84
2022/03/31 08:43:50;;;;;;;21.60;19.30;;;10.00;99.90;;;;;;6193359;23;20409;-85
2022/03/31 08:46:20;;;;;;;23.90;20.80;;;10.10;99.90;;;;;;6193221;23;20429;-84
2022/03/31 08:48:46;;;;;;;24.50;20.23;;;10.10;99.60;;;;;;6199470;23;20442;-85
2022/03/31 08:51:13;;;;;;;23.03;20.00;;;10.00;99.60;;;;;;6197726;23;20394;-81
2022/03/31 08:53:40;;;;;;;23.90;21.30;;;10.00;99.80;;;;;;6208892;23;20412;-83
2022/03/31 08:56:10;;;;;;;23.60;21.20;;;10.00;99.90;;;;;;6210450;23;20416;-84
2022/03/31 08:58:37;;;;;;;23.67;21.27;;;10.10;99.90;;;;;;6206310;23;20394;-84
2022/03/31 09:01:04;;;;;;;23.10;20.70;;;10.20;99.80;;;;;;6205091;23;20441;-85
2022/03/31 09:03:35;;;;;;;23.70;21.17;;;10.30;99.60;;;;;;6210932;23;20402;-83
2022/03/31 09:06:02;;;;;;;24.03;21.53;;;10.40;99.30;;;;;;6208402;23;20428;-83
2022/03/31 09:08:28;;;;;;;23.03;19.50;;;10.30;98.90;;;;;;6212490;23;20421;-86
2022/03/31 09:11:00;;;;;;;22.30;20.00;;;10.30;99.20;;;;;;6196408;23;20397;-84
2022/03/31 09:13:28;;;;;;;23.70;21.10;;;10.40;99.10;;;;;;6195191;23;20401;-83
2022/03/31 09:16:00;;;;;;;26.83;22.20;;;10.60;98.80;;;;;;6196417;23;20430;-84
2022/03/31 09:18:28;;;;;;;22.23;20.03;;;10.90;98.70;;;;;;6199154;23;20402;-84
2022/03/31 09:20:58;;;;;;;23.07;20.17;;;11.30;98.10;;;;;;6200635;23;20446;-84
2022/03/31 09:23:26;;;;;;;23.40;21.00;;;11.40;97.30;;;;;;6198736;23;20410;-84
2022/03/31 09:26:01;;;;;;;23.37;21.03;;;11.50;96.90;;;;;;6203250;23;20432;-83
2022/03/31 09:28:28;;;;;;;21.33;19.13;;;11.50;96.60;;;;;;6197049;23;20395;-84
2022/03/31 09:30:57;;;;;;;24.40;21.37;;;11.60;96.40;;;;;;6193446;23;20402;-84
2022/03/31 09:33:29;;;;;;;24.00;21.50;;;11.40;96.50;;;;;;6202206;23;20410;-84
2022/03/31 09:36:03;;;;;;;24.03;21.57;;;11.70;96.80;;;;;;6194817;23;20528;-78
2022/03/31 09:38:32;;;;;;;23.90;21.27;;;11.80;96.50;;;;;;6192201;23;20405;-80
2022/03/31 09:40:59;;;;;;;26.07;23.10;;;11.50;96.00;;;;;;6196415;23;20824;-81
2022/03/31 09:43:25;;;;;;;25.60;21.53;;;11.40;96.30;;;;;;6205998;23;20456;-86
2022/03/31 09:45:52;;;;;;;24.37;21.77;;;11.40;96.60;;;;;;6205564;23;20429;-87
2022/03/31 09:48:21;;;;;;;23.20;20.30;;;11.60;96.90;;;;;;6201417;23;20489;-85
2022/03/31 09:50:49;;;;;;;27.20;22.60;;;11.80;96.20;;;;;;6199153;23;20426;-84
2022/03/31 09:53:18;;;;;;;24.67;21.80;;;12.30;96.00;;;;;;6196658;23;20406;-84
2022/03/31 09:55:46;;;;;;;23.60;21.33;;;13.20;95.00;;;;;;6208825;23;20457;-84
2022/03/31 09:58:18;;;;;;;22.00;19.80;;;13.80;92.90;;;;;;6193415;23;20395;-84
2022/03/31 10:00:45;;;;;;;23.07;20.77;;;14.20;92.30;;;;;;6190632;23;20437;-85
2022/03/31 10:03:17;;;;;;;24.53;21.40;;;14.40;91.00;;;;;;6190138;23;20424;-84
2022/03/31 10:05:45;;;;;;;24.10;21.80;;;14.50;90.50;;;;;;6191498;23;20520;-84
2022/03/31 10:08:13;;;;;;;24.90;22.50;;;14.60;90.40;;;;;;6193755;23;20405;-85
2022/03/31 10:10:43;;;;;;;25.47;22.80;;;14.50;89.80;;;;;;6190939;23;20961;-85
2022/03/31 10:13:16;;;;;;;24.80;22.20;;;14.50;89.90;;;;;;6189422;23;20425;-85
2022/03/31 10:15:45;;;;;;;25.83;23.13;;;14.40;89.50;;;;;;6191399;23;20426;-85
2022/03/31 10:18:14;;;;;;;23.73;21.40;;;14.30;89.90;;;;;;6191116;23;20437;-85
2022/03/31 10:20:52;;;;;;;21.53;19.33;;;14.40;89.50;;;;;;6203623;23;20413;-83
2022/03/31 10:26:05;;;;;;;23.87;21.37;;;15.20;87.40;;;;;;6210119;23;20417;-84
2022/03/31 10:28:32;;;;;;;22.20;20.10;;;15.40;86.00;;;;;;6197738;23;20389;-84
2022/03/31 10:31:01;;;;;;;25.03;22.47;;;15.70;85.50;;;;;;6205820;23;20395;-86
2022/03/31 10:33:34;;;;;;;23.47;21.10;;;15.60;83.90;;;;;;6213447;23;20448;-86
2022/03/31 10:36:09;;;;;;;23.40;21.10;;;15.10;85.20;;;;;;6201580;23;20440;-85
2022/03/31 10:38:36;;;;;;;27.30;23.50;;;15.20;85.70;;;;;;6209555;23;20384;-86
2022/03/31 10:41:08;;;;;;;24.53;22.13;;;15.00;86.00;;;;;;6206017;23;20448;-85
2022/03/31 10:43:39;;;;;;;26.47;23.73;;;14.50;87.10;;;;;;6188987;23;20464;-86
2022/03/31 10:46:15;;;;;;;25.27;21.47;;;14.10;88.80;;;;;;6188438;23;20450;-85
2022/03/31 10:48:49;;;;;;;26.00;23.23;;;14.00;89.80;;;;;;6187435;23;20411;-85
2022/03/31 10:51:16;;;;;;;25.83;23.13;;;14.00;90.30;;;;;;6187823;23;20385;-85
2022/03/31 10:53:48;;;;;;;26.33;23.67;;;13.90;90.40;;;;;;6187517;23;21053;-85
2022/03/31 10:56:24;;;;;;;27.50;23.80;;;14.00;90.30;;;;;;6188926;23;20450;-85
2022/03/31 10:58:52;;;;;;;28.03;25.13;;;14.00;90.20;;;;;;6187431;23;20486;-85
2022/03/31 11:01:20;;;;;;;23.07;20.77;;;14.00;90.00;;;;;;6190405;23;20450;-85
2022/03/31 11:03:48;;;;;;;26.50;23.60;;;14.00;90.20;;;;;;6192188;23;20396;-86
2022/03/31 11:06:15;;;;;;;27.70;24.93;;;13.90;90.40;;;;;;6189238;23;20750;-85
2022/03/31 11:08:43;;;;;;;25.63;22.90;;;14.00;90.40;;;;;;6189042;23;20446;-85
2022/03/31 11:11:20;;;;;;;26.33;23.50;;;14.10;90.50;;;;;;6196475;23;20399;-85
2022/03/31 11:13:47;;;;;;;31.60;23.10;;;14.20;90.30;;;;;;6196978;23;20390;-83
2022/03/31 11:16:15;;;;;;;26.40;23.70;;;14.40;90.10;;;;;;6192695;23;20426;-84
2022/03/31 11:18:42;;;;;;;26.20;23.23;;;14.00;89.70;;;;;;6195529;23;20407;-84
2022/03/31 11:21:09;;;;;;;25.80;23.20;;;13.90;90.60;;;;;;6190276;23;20470;-84
2022/03/31 11:23:46;;;;;;;26.30;22.80;;;13.90;90.80;;;;;;6205849;23;20396;-85
2022/03/31 11:26:16;;;;;;;24.53;21.93;;;14.00;90.60;;;;;;6206790;23;20440;-84
2022/03/31 11:28:45;;;;;;;24.50;22.10;;;13.90;90.50;;;;;;6211393;23;20375;-87
2022/03/31 11:31:14;;;;;;;25.97;23.33;;;13.80;90.70;;;;;;6194214;23;20745;-85
2022/03/31 11:33:40;;;;;;;27.23;22.90;;;13.90;90.80;;;;;;6186741;23;20415;-85
2022/03/31 11:36:07;;;;;;;23.67;21.20;;;14.00;90.70;;;;;;6187459;23;20448;-85
2022/03/31 11:38:34;;;;;;;24.20;21.60;;;14.00;90.70;;;;;;6186775;23;20419;-85
2022/03/31 11:41:01;;;;;;;24.60;22.10;;;14.30;90.50;;;;;;6186325;23;20402;-83
2022/03/31 11:43:29;;;;;;;27.07;22.67;;;14.30;90.00;;;;;;6185108;23;20406;-84
2022/03/31 11:45:57;;;;;;;24.90;22.37;;;14.30;90.10;;;;;;6185253;23;20478;-84
2022/03/31 11:48:30;;;;;;;23.97;21.47;;;14.30;90.30;;;;;;6184999;23;20421;-83
2022/03/31 11:50:59;;;;;;;25.47;22.80;;;14.30;90.20;;;;;;6185227;23;20732;-84
2022/03/31 11:53:28;;;;;;;24.40;21.00;;;14.30;90.10;;;;;;6185407;23;20734;-84
2022/03/31 11:55:57;;;;;;;26.20;23.50;;;14.20;90.00;;;;;;6190870;23;20494;-84
2022/03/31 11:58:24;;;;;;;24.90;22.27;;;14.20;90.20;;;;;;6186837;23;20402;-84
2022/03/31 12:00:51;;;;;;;25.77;23.10;;;14.10;90.30;;;;;;6204729;23;20397;-86
2022/03/31 12:03:20;;;;;;;25.00;22.43;;;14.10;90.30;;;;;;6203293;23;20450;-85
2022/03/31 12:05:57;;;;;;;24.70;22.20;;;14.00;90.40;;;;;;6203784;23;20430;-85
2022/03/31 12:08:25;;;;;;;25.27;22.67;;;14.00;90.70;;;;;;6199128;23;20375;-84
2022/03/31 12:10:53;;;;;;;26.47;21.43;;;14.00;90.80;;;;;;6194963;23;20415;-84
2022/03/31 12:13:20;;;;;;;23.47;21.00;;;14.00;90.80;;;;;;6201116;23;20421;-85
2022/03/31 12:15:47;;;;;;;25.70;22.90;;;13.80;90.60;;;;;;6195184;23;20440;-86
2022/03/31 12:18:16;;;;;;;25.60;22.40;;;13.70;91.00;;;;;;6210216;23;20427;-85
2022/03/31 12:20:47;;;;;;;21.83;19.57;;;13.60;91.20;;;;;;6203634;23;20419;-84
2022/03/31 12:23:19;;;;;;;24.60;22.00;;;13.50;91.60;;;;;;6201395;23;20437;-85
2022/03/31 12:25:46;;;;;;;24.93;22.43;;;13.50;91.70;;;;;;6189850;23;20433;-85
2022/03/31 12:28:13;;;;;;;26.57;23.80;;;13.60;91.80;;;;;;6187877;23;20912;-86
2022/03/31 12:30:45;;;;;;;27.90;23.47;;;13.80;91.50;;;;;;6188640;23;20426;-85
2022/03/31 12:33:21;;;;;;;23.83;21.33;;;13.80;91.40;;;;;;6188093;23;20751;-85
2022/03/31 12:36:00;;;;;;;25.83;22.87;;;13.90;91.20;;;;;;6189764;23;20769;-85
2022/03/31 12:38:34;;;;;;;25.27;22.43;;;14.00;91.20;;;;;;6188417;23;20376;-85
2022/03/31 12:41:02;;;;;;;23.67;21.37;;;14.10;91.20;;;;;;6203753;23;20401;-85